Aeroporto :
LOGIN :

Iscrizione | Disclaimer

   EN    FR    IT 

 










Sommario :    VFR   VFR Marginale   IFR   IFR Intensivo   IFR Molto Intensivo
Visibilità : 
Base nubi : 
>= 8 km
>= 3000ft
5 / 8 km
1000 / 3000 ft
1500m / 5 km
500 / 1000 ft
800 / 1500m
200 / 500 ft
< 800m
< 200 ft
Simboli :   Temporali  Nebbia  Neve Forte  Precipitazioni Forti  Vento > 20 kt
SIGMETs :   Varie  Temporali  Ghiacco  Turbolenza  Onda orograficha  Ceneri Vulcaniche






- Altitudine del aeroporto : 28 ft
- Codice IATA : SOZ


LFKS - Solenzara

ULTIMO METAR :
  • 171600Z AUTO 01006KT CAVOK 13/11 Q1025

METARs OBSOLETI :
  • 171530Z AUTO 03007KT 9999 FEW030 15/10 Q1025
  • 171500Z AUTO 05008KT 9999 ////// 15/11 Q1025
  • 171430Z AUTO 06007KT 9999 ////// 15/11 Q1025
  • 171400Z AUTO 07006KT 030V090 CAVOK 15/10 Q1025
  • 171330Z AUTO 08005KT 040V120 CAVOK 15/10 Q1025

TAF TAF LFKS
Valido dal 17 a 15 ore il 18 a 15 ore UTC


171400Z 1715/1815 08008KT 9999 SCT030
BECMG 1717/1719 27010KT
BECMG 1807/1809 12010KT



MetMap, La meteo Aeronautica in un colpo d'occhio ! - Copyright ORBIFLY Dicembre 2007 - Disclaimer

ORBIFLY MET'MAP TEAM :

Programmazione e sviluppo : Alexandra Zaïnal
Concezione : Baudouin d'Aumeries
Aiuto per la programmazione : Marc-Olivier Méhu
Supporto tecnico e logistico : Manuel Goepfert
Aiuto per la traduzione : Arnaldo La Scala

Contatto : metmap@orbifly.com




FONTI E CREDITI :

   NOAA